createdAt,value
2023-05-10T00:00:39.113Z,30.00
2023-05-10T00:05:44.078Z,36.00
2023-05-10T00:10:48.878Z,30.50
2023-05-10T00:15:53.779Z,35.75
2023-05-10T00:20:58.606Z,34.25
2023-05-10T00:26:03.432Z,35.25
2023-05-10T00:31:08.224Z,36.25
2023-05-10T00:36:13.179Z,29.50
2023-05-10T00:41:19.160Z,32.75
2023-05-10T00:46:24.868Z,31.50
2023-05-10T00:51:30.083Z,30.00
2023-05-10T00:56:35.132Z,31.25
2023-05-10T01:01:41.336Z,30.00
2023-05-10T01:06:46.597Z,30.25
2023-05-10T01:11:52.419Z,33.50
2023-05-10T01:16:57.756Z,30.25
2023-05-10T01:22:08.106Z,33.00
2023-05-10T01:27:12.772Z,33.00
2023-05-10T01:32:26.686Z,37.00
2023-05-10T01:37:35.470Z,33.50
2023-05-10T01:42:45.068Z,36.75
2023-05-10T01:47:53.674Z,31.25
2023-05-10T01:53:00.302Z,39.75
2023-05-10T01:58:07.595Z,37.50
2023-05-10T02:03:13.746Z,28.25
2023-05-10T02:08:19.898Z,38.00
2023-05-10T02:13:26.386Z,44.00
2023-05-10T02:18:32.763Z,39.50
2023-05-10T02:23:37.953Z,41.00
2023-05-10T02:28:43.547Z,41.75
2023-05-10T02:33:48.931Z,43.25
2023-05-10T02:38:56.316Z,40.00
2023-05-10T02:44:05.236Z,42.00
2023-05-10T02:49:11.008Z,47.00
2023-05-10T02:54:18.476Z,38.75
2023-05-10T02:59:23.193Z,37.75
2023-05-10T03:04:27.608Z,48.50
2023-05-10T03:09:35.002Z,39.50
2023-05-10T03:14:48.631Z,44.75
2023-05-10T03:19:57.908Z,46.50
2023-05-10T03:25:08.167Z,46.75
2023-05-10T03:30:14.009Z,42.25
2023-05-10T03:35:19.676Z,41.00
2023-05-10T03:40:24.862Z,48.75
2023-05-10T03:45:29.807Z,42.25
2023-05-10T03:50:34.515Z,48.25
2023-05-10T03:55:39.102Z,47.50
2023-05-10T04:00:46.147Z,48.00
2023-05-10T04:05:51.724Z,47.75
2023-05-10T04:10:56.079Z,43.75
2023-05-10T04:16:00.527Z,42.50
2023-05-10T04:21:05.051Z,45.25
2023-05-10T04:26:10.280Z,38.75
2023-05-10T04:31:14.764Z,44.50
2023-05-10T04:36:19.451Z,41.75
2023-05-10T04:41:23.865Z,41.50
2023-05-10T04:46:28.248Z,43.00
2023-05-10T04:51:33.710Z,41.00
2023-05-10T04:56:38.177Z,38.00
2023-05-10T05:01:42.811Z,41.50
2023-05-10T05:06:47.474Z,42.25
2023-05-10T05:11:51.872Z,38.75
2023-05-10T05:16:56.594Z,32.00
2023-05-10T05:22:00.999Z,43.25
2023-05-10T05:27:05.561Z,44.75
2023-05-10T05:32:10.747Z,33.25
2023-05-10T05:37:19.158Z,30.75
2023-05-10T05:42:23.558Z,35.75
2023-05-10T05:47:27.937Z,33.50
2023-05-10T05:52:32.971Z,40.25
2023-05-10T05:57:37.285Z,37.25
2023-05-10T06:02:43.257Z,41.75
2023-05-10T06:07:48.352Z,39.25
2023-05-10T06:12:53.073Z,33.00
2023-05-10T06:17:57.476Z,39.50
2023-05-10T06:23:02.042Z,35.00
2023-05-10T06:28:06.188Z,39.75
2023-05-10T06:33:11.722Z,35.00
2023-05-10T06:38:16.289Z,38.75
2023-05-10T06:43:20.717Z,28.00
2023-05-10T06:48:24.969Z,33.50
2023-05-10T06:53:29.807Z,38.75
2023-05-10T06:58:35.093Z,33.75
2023-05-10T07:03:39.245Z,42.75
2023-05-10T07:08:43.668Z,36.50
2023-05-10T07:13:48.914Z,31.75
2023-05-10T07:18:53.379Z,40.25
2023-05-10T07:23:57.669Z,37.25
2023-05-10T07:29:02.186Z,37.25
2023-05-10T07:34:06.975Z,43.00
2023-05-10T07:39:16.171Z,41.00
2023-05-10T07:44:23.297Z,35.50
2023-05-10T07:49:28.320Z,42.75
2023-05-10T07:54:32.782Z,44.50
2023-05-10T07:59:37.370Z,45.75
2023-05-10T08:04:42.032Z,52.25
2023-05-10T08:09:46.503Z,47.50
2023-05-10T08:14:51.028Z,48.00
2023-05-10T08:19:55.487Z,47.50
2023-05-10T08:24:59.578Z,49.00
2023-05-10T08:30:03.928Z,46.75
2023-05-10T08:35:08.624Z,39.75
2023-05-10T08:40:14.429Z,42.50
2023-05-10T08:45:20.282Z,49.75
2023-05-10T08:50:25.027Z,46.75
2023-05-10T08:55:30.368Z,42.25
2023-05-10T09:00:36.535Z,48.50
2023-05-10T09:05:41.071Z,44.25
2023-05-10T09:10:46.187Z,42.50
2023-05-10T09:15:50.987Z,42.75
2023-05-10T09:20:55.561Z,44.25
2023-05-10T09:26:09.204Z,43.50
2023-05-10T09:31:13.925Z,46.50
2023-05-10T09:36:18.737Z,48.25
2023-05-10T09:41:26.215Z,49.00
2023-05-10T09:46:30.440Z,41.25
2023-05-10T09:51:36.162Z,41.75
2023-05-10T09:56:42.680Z,39.00
2023-05-10T10:01:53.082Z,44.25
2023-05-10T10:07:03.060Z,46.00
2023-05-10T10:12:08.119Z,45.50
2023-05-10T10:17:13.300Z,43.75
2023-05-10T10:22:17.980Z,41.25
2023-05-10T10:27:48.687Z,43.75
2023-05-10T10:33:24.281Z,46.75
2023-05-10T10:38:40.251Z,46.25
2023-05-10T10:43:45.247Z,47.50
2023-05-10T10:48:51.295Z,51.00
2023-05-10T10:53:56.871Z,49.50
2023-05-10T10:59:02.324Z,46.50
2023-05-10T11:04:07.146Z,45.75
2023-05-10T11:09:13.573Z,51.75
2023-05-10T11:14:22.471Z,47.50
2023-05-10T11:19:30.158Z,43.25
2023-05-10T11:24:35.840Z,48.50
2023-05-10T11:29:40.963Z,43.25
2023-05-10T11:34:52.733Z,44.50
2023-05-10T11:39:57.618Z,46.25
2023-05-10T11:45:03.946Z,44.00
2023-05-10T11:50:08.981Z,44.75
2023-05-10T11:55:15.086Z,47.75
2023-05-10T12:00:20.040Z,48.75
2023-05-10T12:05:25.139Z,49.50
2023-05-10T12:10:30.206Z,47.50
2023-05-10T12:15:35.132Z,48.50
2023-05-10T12:20:41.021Z,49.00
2023-05-10T12:25:45.720Z,46.00
2023-05-10T12:30:50.306Z,47.50
2023-05-10T12:35:56.145Z,45.75
2023-05-10T12:41:04.887Z,48.25
2023-05-10T12:46:14.640Z,53.00
2023-05-10T12:51:21.735Z,46.50
2023-05-10T12:56:27.328Z,47.75
2023-05-10T13:01:32.455Z,47.50
2023-05-10T13:06:37.584Z,50.25
2023-05-10T13:11:42.349Z,48.75
2023-05-10T13:16:47.051Z,47.50
2023-05-10T13:21:51.903Z,42.25
2023-05-10T13:26:56.889Z,47.25
2023-05-10T13:32:05.845Z,51.75
2023-05-10T13:37:10.807Z,52.25
2023-05-10T13:42:16.512Z,50.00
2023-05-10T13:47:21.859Z,41.50
2023-05-10T13:52:26.835Z,49.25
2023-05-10T13:57:32.544Z,46.25
2023-05-10T14:02:37.518Z,43.25
2023-05-10T14:07:42.577Z,44.00
2023-05-10T14:12:47.641Z,48.00
2023-05-10T14:17:52.373Z,50.75
2023-05-10T14:22:57.137Z,46.50
2023-05-10T14:28:02.254Z,46.75
2023-05-10T14:33:07.143Z,46.00
2023-05-10T14:38:16.216Z,47.75
2023-05-10T14:43:22.728Z,49.50
2023-05-10T14:48:27.921Z,39.75
2023-05-10T14:53:33.189Z,40.50
2023-05-10T14:58:37.999Z,39.75
2023-05-10T15:03:43.351Z,46.50
2023-05-10T15:08:48.465Z,36.75
2023-05-10T15:13:53.508Z,43.50
2023-05-10T15:18:58.570Z,49.00
2023-05-10T15:24:03.972Z,40.00
2023-05-10T15:29:08.979Z,38.50
2023-05-10T15:34:14.035Z,46.00
2023-05-10T15:39:18.882Z,41.00
2023-05-10T15:44:24.367Z,39.75
2023-05-10T15:49:29.615Z,37.75
2023-05-10T15:54:34.774Z,40.50
2023-05-10T15:59:39.546Z,45.75
2023-05-10T16:04:45.909Z,42.50
2023-05-10T16:09:51.101Z,39.00
2023-05-10T16:14:55.968Z,44.50
2023-05-10T16:20:01.328Z,41.75
2023-05-10T16:25:06.432Z,42.25
2023-05-10T16:30:11.409Z,39.75
2023-05-10T16:35:16.559Z,34.00
2023-05-10T16:40:21.611Z,41.00
2023-05-10T16:45:27.128Z,46.50
2023-05-10T16:50:32.012Z,40.25
2023-05-10T16:55:36.673Z,43.50
2023-05-10T17:00:41.408Z,40.75
2023-05-10T17:05:46.245Z,50.00
2023-05-10T17:10:50.982Z,41.75
2023-05-10T17:15:55.791Z,43.00
2023-05-10T17:21:01.153Z,44.00
2023-05-10T17:26:07.054Z,48.25
2023-05-10T17:31:11.995Z,40.00
2023-05-10T17:36:16.673Z,48.00
2023-05-10T17:41:21.439Z,49.25
2023-05-10T17:46:26.177Z,47.00
2023-05-10T17:51:31.619Z,39.00
2023-05-10T17:56:36.341Z,44.75
2023-05-10T18:01:41.201Z,43.00
2023-05-10T18:06:45.957Z,49.00
2023-05-10T18:11:50.903Z,47.50
2023-05-10T18:16:55.876Z,44.50
2023-05-10T18:22:00.421Z,43.50
2023-05-10T18:27:06.914Z,44.00
2023-05-10T18:32:12.145Z,46.50
2023-05-10T18:37:16.976Z,44.75
2023-05-10T18:42:22.078Z,45.50
2023-05-10T18:47:28.011Z,43.75
2023-05-10T18:52:33.115Z,44.75
2023-05-10T18:57:42.941Z,43.50
2023-05-10T19:02:48.303Z,43.50
2023-05-10T19:07:53.200Z,44.25
2023-05-10T19:12:58.717Z,43.75
2023-05-10T19:18:03.456Z,48.00
2023-05-10T19:23:10.351Z,49.00
2023-05-10T19:28:15.290Z,46.50
2023-05-10T19:33:20.200Z,43.25
2023-05-10T19:38:25.689Z,43.75
2023-05-10T19:43:33.389Z,42.25
2023-05-10T19:48:39.991Z,48.00
2023-05-10T19:53:46.303Z,39.50
2023-05-10T19:58:50.978Z,41.00
2023-05-10T20:03:55.806Z,46.00
2023-05-10T20:09:00.541Z,43.00
2023-05-10T20:14:05.840Z,44.50
2023-05-10T20:19:10.814Z,47.00
2023-05-10T20:24:15.597Z,43.00
2023-05-10T20:29:20.393Z,46.00
2023-05-10T20:34:25.343Z,48.75
2023-05-10T20:39:31.161Z,43.75
2023-05-10T20:44:36.085Z,46.50
2023-05-10T20:49:41.661Z,47.25
2023-05-10T20:54:46.692Z,42.75
2023-05-10T20:59:53.427Z,45.00
2023-05-10T21:04:58.445Z,47.75
2023-05-10T21:10:03.300Z,41.75
2023-05-10T21:15:08.758Z,46.00
2023-05-10T21:20:14.078Z,46.25
2023-05-10T21:25:19.490Z,48.75
2023-05-10T21:30:24.621Z,48.00
2023-05-10T21:35:29.578Z,48.25
2023-05-10T21:40:35.240Z,49.50
2023-05-10T21:45:40.514Z,43.25
2023-05-10T21:50:45.566Z,50.75
2023-05-10T21:55:50.590Z,47.75
2023-05-10T22:00:55.404Z,48.00
2023-05-10T22:06:00.241Z,56.00
2023-05-10T22:11:04.936Z,48.25
2023-05-10T22:16:09.653Z,53.75
2023-05-10T22:21:14.538Z,54.50
2023-05-10T22:26:19.359Z,54.00
2023-05-10T22:31:24.477Z,54.25
2023-05-10T22:36:30.480Z,56.25
2023-05-10T22:41:35.831Z,55.75
2023-05-10T22:46:40.457Z,55.00
2023-05-10T22:51:45.232Z,51.50
2023-05-10T22:56:50.291Z,53.00
2023-05-10T23:01:55.857Z,54.25
2023-05-10T23:07:01.909Z,53.50
2023-05-10T23:12:07.118Z,61.00
2023-05-10T23:17:12.397Z,55.50
2023-05-10T23:22:17.204Z,55.25
2023-05-10T23:27:22.044Z,69.75
2023-05-10T23:32:26.936Z,72.75
2023-05-10T23:37:31.884Z,62.75
2023-05-10T23:42:36.746Z,65.50
2023-05-10T23:47:41.457Z,64.25
2023-05-10T23:52:46.231Z,66.75
2023-05-10T23:57:51.463Z,68.25
